sensor_id;sensor_type;location;lat;lon;timestamp;pressure;altitude;pressure_sealevel;temperature;humidity
56944;BME280;42848;42.524;12.052;2023-02-28T00:01:03;96558.09;;;3.98;100.00
56944;BME280;42848;42.524;12.052;2023-02-28T00:03:29;96553.31;;;3.95;100.00
56944;BME280;42848;42.524;12.052;2023-02-28T00:05:54;96550.09;;;3.93;100.00
56944;BME280;42848;42.524;12.052;2023-02-28T00:08:20;96540.44;;;3.92;100.00
56944;BME280;42848;42.524;12.052;2023-02-28T00:10:46;96539.41;;;3.88;100.00
56944;BME280;42848;42.524;12.052;2023-02-28T00:13:11;96541.03;;;3.84;100.00
56944;BME280;42848;42.524;12.052;2023-02-28T00:15:37;96537.22;;;3.90;100.00
56944;BME280;42848;42.524;12.052;2023-02-28T00:18:02;96539.41;;;3.88;100.00
56944;BME280;42848;42.524;12.052;2023-02-28T00:20:28;96535.41;;;3.85;100.00
56944;BME280;42848;42.524;12.052;2023-02-28T00:22:55;96528.66;;;3.88;100.00
56944;BME280;42848;42.524;12.052;2023-02-28T00:25:23;96532.44;;;3.87;100.00
56944;BME280;42848;42.524;12.052;2023-02-28T00:27:49;96530.28;;;3.84;100.00
56944;BME280;42848;42.524;12.052;2023-02-28T00:30:18;96531.34;;;3.88;100.00
56944;BME280;42848;42.524;12.052;2023-02-28T00:32:44;96537.00;;;3.86;100.00
56944;BME280;42848;42.524;12.052;2023-02-28T00:35:10;96532.97;;;3.84;100.00
56944;BME280;42848;42.524;12.052;2023-02-28T00:37:36;96534.84;;;3.88;100.00
56944;BME280;42848;42.524;12.052;2023-02-28T00:40:03;96533.81;;;3.84;100.00
56944;BME280;42848;42.524;12.052;2023-02-28T00:42:35;96532.38;;;3.92;100.00
56944;BME280;42848;42.524;12.052;2023-02-28T00:45:02;96523.88;;;3.85;100.00
56944;BME280;42848;42.524;12.052;2023-02-28T00:49:59;96537.28;;;3.85;100.00
56944;BME280;42848;42.524;12.052;2023-02-28T00:52:25;96527.34;;;3.85;100.00
56944;BME280;42848;42.524;12.052;2023-02-28T00:54:51;96530.25;;;3.89;100.00
56944;BME280;42848;42.524;12.052;2023-02-28T00:57:17;96533.53;;;3.81;100.00
56944;BME280;42848;42.524;12.052;2023-02-28T00:59:42;96522.53;;;3.82;100.00
56944;BME280;42848;42.524;12.052;2023-02-28T01:02:08;96525.75;;;3.84;100.00
56944;BME280;42848;42.524;12.052;2023-02-28T01:04:33;96530.84;;;3.86;100.00
56944;BME280;42848;42.524;12.052;2023-02-28T01:06:59;96533.97;;;3.93;100.00
56944;BME280;42848;42.524;12.052;2023-02-28T01:09:24;96541.00;;;3.89;100.00
56944;BME280;42848;42.524;12.052;2023-02-28T01:11:50;96535.66;;;3.84;100.00
56944;BME280;42848;42.524;12.052;2023-02-28T01:14:17;96531.38;;;3.83;100.00
56944;BME280;42848;42.524;12.052;2023-02-28T01:16:43;96532.72;;;3.85;100.00
56944;BME280;42848;42.524;12.052;2023-02-28T01:19:09;96525.41;;;3.91;100.00
56944;BME280;42848;42.524;12.052;2023-02-28T01:21:35;96529.47;;;3.88;100.00
56944;BME280;42848;42.524;12.052;2023-02-28T01:24:02;96526.50;;;3.90;100.00
56944;BME280;42848;42.524;12.052;2023-02-28T01:26:28;96520.84;;;3.91;100.00
56944;BME280;42848;42.524;12.052;2023-02-28T01:28:54;96533.47;;;3.91;100.00
56944;BME280;42848;42.524;12.052;2023-02-28T01:31:21;96512.22;;;3.94;100.00
56944;BME280;42848;42.524;12.052;2023-02-28T01:33:48;96518.13;;;3.96;100.00
56944;BME280;42848;42.524;12.052;2023-02-28T01:36:22;96504.44;;;3.93;100.00
56944;BME280;42848;42.524;12.052;2023-02-28T01:38:48;96516.22;;;3.97;100.00
56944;BME280;42848;42.524;12.052;2023-02-28T01:41:26;96515.66;;;4.00;100.00
56944;BME280;42848;42.524;12.052;2023-02-28T01:43:59;96507.66;;;3.95;100.00
56944;BME280;42848;42.524;12.052;2023-02-28T01:46:29;96502.00;;;3.96;100.00
56944;BME280;42848;42.524;12.052;2023-02-28T01:49:09;96498.53;;;3.96;100.00
56944;BME280;42848;42.524;12.052;2023-02-28T01:51:44;96503.59;;;3.97;100.00
56944;BME280;42848;42.524;12.052;2023-02-28T01:54:22;96509.81;;;3.93;100.00
56944;BME280;42848;42.524;12.052;2023-02-28T01:59:52;96503.31;;;3.99;100.00
56944;BME280;42848;42.524;12.052;2023-02-28T02:02:20;96507.09;;;3.98;100.00
56944;BME280;42848;42.524;12.052;2023-02-28T02:04:58;96499.31;;;3.96;100.00
56944;BME280;42848;42.524;12.052;2023-02-28T02:07:30;96503.31;;;3.99;100.00
56944;BME280;42848;42.524;12.052;2023-02-28T02:10:27;96510.28;;;4.00;100.00
56944;BME280;42848;42.524;12.052;2023-02-28T02:16:10;96508.09;;;4.02;100.00
56944;BME280;42848;42.524;12.052;2023-02-28T02:26:50;96502.69;;;4.07;100.00
56944;BME280;42848;42.524;12.052;2023-02-28T02:29:41;96495.72;;;4.06;100.00
56944;BME280;42848;42.524;12.052;2023-02-28T02:37:45;96493.63;;;4.03;100.00
56944;BME280;42848;42.524;12.052;2023-02-28T02:40:18;96494.88;;;4.11;100.00
56944;BME280;42848;42.524;12.052;2023-02-28T02:42:52;96499.44;;;4.10;100.00
56944;BME280;42848;42.524;12.052;2023-02-28T02:45:28;96504.28;;;4.13;100.00
56944;BME280;42848;42.524;12.052;2023-02-28T02:48:03;96500.03;;;4.07;100.00
56944;BME280;42848;42.524;12.052;2023-02-28T02:50:34;96492.47;;;4.09;100.00
56944;BME280;42848;42.524;12.052;2023-02-28T02:53:03;96490.94;;;4.03;100.00
56944;BME280;42848;42.524;12.052;2023-02-28T02:55:33;96500.31;;;4.06;100.00
56944;BME280;42848;42.524;12.052;2023-02-28T02:58:03;96483.69;;;4.04;100.00
56944;BME280;42848;42.524;12.052;2023-02-28T03:00:34;96487.50;;;3.97;100.00
56944;BME280;42848;42.524;12.052;2023-02-28T03:03:01;96484.00;;;3.97;100.00
56944;BME280;42848;42.524;12.052;2023-02-28T03:05:54;96480.44;;;4.02;100.00
56944;BME280;42848;42.524;12.052;2023-02-28T03:08:20;96474.06;;;3.97;100.00
56944;BME280;42848;42.524;12.052;2023-02-28T03:10:50;96483.44;;;4.00;100.00
56944;BME280;42848;42.524;12.052;2023-02-28T03:24:08;96487.19;;;3.99;100.00
56944;BME280;42848;42.524;12.052;2023-02-28T03:26:39;96487.78;;;3.96;100.00
56944;BME280;42848;42.524;12.052;2023-02-28T03:29:15;96489.38;;;3.97;100.00
56944;BME280;42848;42.524;12.052;2023-02-28T03:31:52;96485.03;;;4.01;100.00
56944;BME280;42848;42.524;12.052;2023-02-28T03:34:26;96488.00;;;3.99;100.00
56944;BME280;42848;42.524;12.052;2023-02-28T03:36:59;96493.66;;;3.98;100.00
56944;BME280;42848;42.524;12.052;2023-02-28T03:39:31;96494.53;;;3.93;100.00
56944;BME280;42848;42.524;12.052;2023-02-28T03:42:11;96488.28;;;3.98;100.00
56944;BME280;42848;42.524;12.052;2023-02-28T03:44:48;96493.69;;;3.93;100.00
56944;BME280;42848;42.524;12.052;2023-02-28T03:47:16;96486.97;;;3.95;100.00
56944;BME280;42848;42.524;12.052;2023-02-28T03:50:04;96487.50;;;3.97;100.00
56944;BME280;42848;42.524;12.052;2023-02-28T03:52:35;96488.88;;;3.95;100.00
56944;BME280;42848;42.524;12.052;2023-02-28T03:55:09;96480.56;;;3.91;100.00
56944;BME280;42848;42.524;12.052;2023-02-28T03:58:11;96484.81;;;3.97;100.00
56944;BME280;42848;42.524;12.052;2023-02-28T04:00:45;96487.28;;;3.89;100.00
56944;BME280;42848;42.524;12.052;2023-02-28T04:03:12;96485.13;;;3.91;100.00
56944;BME280;42848;42.524;12.052;2023-02-28T04:05:49;96487.88;;;3.86;100.00
56944;BME280;42848;42.524;12.052;2023-02-28T04:08:16;96494.84;;;3.87;100.00
56944;BME280;42848;42.524;12.052;2023-02-28T04:10:43;96493.75;;;3.88;100.00
56944;BME280;42848;42.524;12.052;2023-02-28T04:13:10;96494.84;;;3.87;100.00
56944;BME280;42848;42.524;12.052;2023-02-28T04:15:36;96486.78;;;3.87;100.00
56944;BME280;42848;42.524;12.052;2023-02-28T04:18:02;96488.66;;;3.86;100.00
56944;BME280;42848;42.524;12.052;2023-02-28T04:20:28;96487.88;;;3.86;100.00
56944;BME280;42848;42.524;12.052;2023-02-28T04:22:53;96497.56;;;3.82;100.00
56944;BME280;42848;42.524;12.052;2023-02-28T04:25:19;96490.00;;;3.84;100.00
56944;BME280;42848;42.524;12.052;2023-02-28T04:27:44;96480.63;;;3.86;100.00
56944;BME280;42848;42.524;12.052;2023-02-28T04:30:11;96480.91;;;3.85;100.00
56944;BME280;42848;42.524;12.052;2023-02-28T04:32:36;96482.25;;;3.82;100.00
56944;BME280;42848;42.524;12.052;2023-02-28T04:35:02;96484.13;;;3.82;100.00
56944;BME280;42848;42.524;12.052;2023-02-28T04:37:28;96495.66;;;3.82;100.00
56944;BME280;42848;42.524;12.052;2023-02-28T04:39:54;96496.81;;;3.76;100.00
56944;BME280;42848;42.524;12.052;2023-02-28T04:42:20;96489.03;;;3.75;100.00
56944;BME280;42848;42.524;12.052;2023-02-28T04:44:46;96495.44;;;3.79;100.00
56944;BME280;42848;42.524;12.052;2023-02-28T04:47:12;96497.34;;;3.78;100.00
56944;BME280;42848;42.524;12.052;2023-02-28T04:49:38;96504.88;;;3.76;100.00
56944;BME280;42848;42.524;12.052;2023-02-28T04:52:04;96495.22;;;3.75;100.00
56944;BME280;42848;42.524;12.052;2023-02-28T04:54:29;96504.06;;;3.76;100.00
56944;BME280;42848;42.524;12.052;2023-02-28T04:56:56;96508.88;;;3.79;100.00
56944;BME280;42848;42.524;12.052;2023-02-28T04:59:21;96508.81;;;3.84;100.00
56944;BME280;42848;42.524;12.052;2023-02-28T05:01:48;96503.97;;;3.86;100.00
56944;BME280;42848;42.524;12.052;2023-02-28T05:04:14;96505.06;;;3.85;100.00
56944;BME280;42848;42.524;12.052;2023-02-28T05:06:40;96511.50;;;3.84;100.00
56944;BME280;42848;42.524;12.052;2023-02-28T05:09:05;96506.97;;;3.84;100.00
56944;BME280;42848;42.524;12.052;2023-02-28T05:11:33;96510.69;;;3.83;100.00
56944;BME280;42848;42.524;12.052;2023-02-28T05:14:02;96511.50;;;3.84;100.00
56944;BME280;42848;42.524;12.052;2023-02-28T05:16:28;96509.09;;;3.82;100.00
56944;BME280;42848;42.524;12.052;2023-02-28T05:18:54;96518.50;;;3.85;100.00
56944;BME280;42848;42.524;12.052;2023-02-28T05:23:51;96508.25;;;3.87;100.00
56944;BME280;42848;42.524;12.052;2023-02-28T05:26:18;96510.16;;;3.86;100.00
56944;BME280;42848;42.524;12.052;2023-02-28T05:28:43;96515.75;;;3.90;100.00
56944;BME280;42848;42.524;12.052;2023-02-28T05:31:11;96507.69;;;3.90;100.00
56944;BME280;42848;42.524;12.052;2023-02-28T05:33:37;96506.09;;;3.89;100.00
56944;BME280;42848;42.524;12.052;2023-02-28T05:36:04;96506.31;;;3.92;100.00
56944;BME280;42848;42.524;12.052;2023-02-28T05:38:29;96526.50;;;3.90;100.00
56944;BME280;42848;42.524;12.052;2023-02-28T05:40:55;96523.28;;;3.88;100.00
56944;BME280;42848;42.524;12.052;2023-02-28T05:43:21;96520.81;;;3.96;100.00
56944;BME280;42848;42.524;12.052;2023-02-28T05:45:47;96512.50;;;3.93;100.00
56944;BME280;42848;42.524;12.052;2023-02-28T05:48:13;96513.56;;;3.92;100.00
56944;BME280;42848;42.524;12.052;2023-02-28T05:50:38;96517.59;;;3.94;100.00
56944;BME280;42848;42.524;12.052;2023-02-28T05:53:05;96510.34;;;3.95;100.00
56944;BME280;42848;42.524;12.052;2023-02-28T05:55:30;96512.97;;;4.00;100.00
56944;BME280;42848;42.524;12.052;2023-02-28T05:57:56;96511.34;;;4.04;100.00
56944;BME280;42848;42.524;12.052;2023-02-28T06:00:22;96510.28;;;4.00;100.00
56944;BME280;42848;42.524;12.052;2023-02-28T06:02:47;96511.34;;;4.04;100.00
56944;BME280;42848;42.524;12.052;2023-02-28T06:05:16;96516.13;;;4.07;100.00
56944;BME280;42848;42.524;12.052;2023-02-28T06:07:42;96529.06;;;4.05;100.00
56944;BME280;42848;42.524;12.052;2023-02-28T06:10:10;96529.06;;;4.05;100.00
56944;BME280;42848;42.524;12.052;2023-02-28T06:12:37;96518.31;;;4.05;100.00
56944;BME280;42848;42.524;12.052;2023-02-28T06:15:02;96539.22;;;4.08;100.00
56944;BME280;42848;42.524;12.052;2023-02-28T06:17:28;96532.25;;;4.07;100.00
56944;BME280;42848;42.524;12.052;2023-02-28T06:19:54;96533.28;;;4.11;100.00
56944;BME280;42848;42.524;12.052;2023-02-28T06:22:19;96535.44;;;4.09;100.00
56944;BME280;42848;42.524;12.052;2023-02-28T06:24:45;96541.63;;;4.10;100.00
56944;BME280;42848;42.524;12.052;2023-02-28T06:27:10;96533.84;;;4.08;100.00
56944;BME280;42848;42.524;12.052;2023-02-28T06:29:36;96542.75;;;4.04;100.00
56944;BME280;42848;42.524;12.052;2023-02-28T06:32:05;96536.81;;;4.07;100.00
56944;BME280;42848;42.524;12.052;2023-02-28T06:34:31;96540.31;;;4.07;100.00
56944;BME280;42848;42.524;12.052;2023-02-28T06:36:57;96554.31;;;4.04;100.00
56944;BME280;42848;42.524;12.052;2023-02-28T06:39:28;96546.19;;;4.09;100.00
56944;BME280;42848;42.524;12.052;2023-02-28T06:41:54;96549.38;;;4.11;100.00
56944;BME280;42848;42.524;12.052;2023-02-28T06:44:20;96550.47;;;4.10;100.00
56944;BME280;42848;42.524;12.052;2023-02-28T06:46:46;96547.78;;;4.10;100.00
56944;BME280;42848;42.524;12.052;2023-02-28T06:49:12;96547.78;;;4.10;100.00
56944;BME280;42848;42.524;12.052;2023-02-28T06:51:42;96552.84;;;4.17;100.00
56944;BME280;42848;42.524;12.052;2023-02-28T06:54:11;96542.38;;;4.15;100.00
56944;BME280;42848;42.524;12.052;2023-02-28T06:56:38;96535.88;;;4.21;100.00
56944;BME280;42848;42.524;12.052;2023-02-28T06:59:04;96541.19;;;4.26;100.00
56944;BME280;42848;42.524;12.052;2023-02-28T07:01:30;96554.13;;;4.24;100.00
56944;BME280;42848;42.524;12.052;2023-02-28T07:03:59;96548.16;;;4.27;100.00
56944;BME280;42848;42.524;12.052;2023-02-28T07:06:26;96544.06;;;4.35;100.00
56944;BME280;42848;42.524;12.052;2023-02-28T07:08:53;96543.63;;;4.52;100.00
56944;BME280;42848;42.524;12.052;2023-02-28T07:11:24;96555.97;;;4.53;100.00
56944;BME280;42848;42.524;12.052;2023-02-28T07:13:52;96541.44;;;4.54;100.00
56944;BME280;42848;42.524;12.052;2023-02-28T07:16:18;96534.94;;;4.60;100.00
56944;BME280;42848;42.524;12.052;2023-02-28T07:18:44;96539.06;;;4.76;100.00
56944;BME280;42848;42.524;12.052;2023-02-28T07:21:10;96548.50;;;4.74;100.00
56944;BME280;42848;42.524;12.052;2023-02-28T07:23:37;96541.22;;;4.74;100.00
56944;BME280;42848;42.524;12.052;2023-02-28T07:26:04;96546.59;;;4.74;100.00
56944;BME280;42848;42.524;12.052;2023-02-28T07:28:30;96548.16;;;4.80;100.00
56944;BME280;42848;42.524;12.052;2023-02-28T07:30:56;96547.06;;;4.81;100.00
56944;BME280;42848;42.524;12.052;2023-02-28T07:33:22;96547.56;;;4.83;100.00
56944;BME280;42848;42.524;12.052;2023-02-28T07:35:49;96532.19;;;4.89;100.00
56944;BME280;42848;42.524;12.052;2023-02-28T07:38:15;96536.13;;;4.97;100.00
56944;BME280;42848;42.524;12.052;2023-02-28T07:40:41;96533.19;;;4.93;100.00
56944;BME280;42848;42.524;12.052;2023-02-28T07:43:07;96538.22;;;5.00;100.00
56944;BME280;42848;42.524;12.052;2023-02-28T07:45:32;96528.28;;;5.00;100.00
56944;BME280;42848;42.524;12.052;2023-02-28T07:48:00;96534.31;;;5.11;100.00
56944;BME280;42848;42.524;12.052;2023-02-28T07:50:26;96535.84;;;5.17;100.00
56944;BME280;42848;42.524;12.052;2023-02-28T07:52:57;96533.63;;;5.24;100.00
56944;BME280;42848;42.524;12.052;2023-02-28T07:55:23;96527.66;;;5.27;100.00
56944;BME280;42848;42.524;12.052;2023-02-28T07:57:49;96539.16;;;5.33;100.00
56944;BME280;42848;42.524;12.052;2023-02-28T08:00:14;96531.06;;;5.33;100.00
56944;BME280;42848;42.524;12.052;2023-02-28T08:02:40;96530.28;;;5.32;100.00
56944;BME280;42848;42.524;12.052;2023-02-28T08:05:07;96531.13;;;5.47;100.00
56944;BME280;42848;42.524;12.052;2023-02-28T08:07:33;96528.88;;;5.54;100.00
56944;BME280;42848;42.524;12.052;2023-02-28T08:09:59;96527.00;;;5.54;100.00
56944;BME280;42848;42.524;12.052;2023-02-28T08:12:25;96539.16;;;5.52;100.00
56944;BME280;42848;42.524;12.052;2023-02-28T08:14:51;96530.41;;;5.60;100.00
56944;BME280;42848;42.524;12.052;2023-02-28T08:17:17;96532.59;;;5.58;100.00
56944;BME280;42848;42.524;12.052;2023-02-28T08:19:45;96547.00;;;5.67;100.00
56944;BME280;42848;42.524;12.052;2023-02-28T08:22:12;96540.69;;;5.58;100.00
56944;BME280;42848;42.524;12.052;2023-02-28T08:24:39;96549.16;;;5.65;100.00
56944;BME280;42848;42.524;12.052;2023-02-28T08:27:06;96547.00;;;5.67;100.00
56944;BME280;42848;42.524;12.052;2023-02-28T08:29:32;96541.63;;;5.67;100.00
56944;BME280;42848;42.524;12.052;2023-02-28T08:31:57;96536.25;;;5.67;100.00
56944;BME280;42848;42.524;12.052;2023-02-28T08:34:24;96536.88;;;5.78;100.00
56944;BME280;42848;42.524;12.052;2023-02-28T08:36:49;96540.28;;;5.83;100.00
56944;BME280;42848;42.524;12.052;2023-02-28T08:39:15;96541.59;;;5.86;100.00
56944;BME280;42848;42.524;12.052;2023-02-28T08:41:42;96540.28;;;5.83;100.00
56944;BME280;42848;42.524;12.052;2023-02-28T08:44:08;96549.09;;;5.89;100.00
56944;BME280;42848;42.524;12.052;2023-02-28T08:46:33;96548.75;;;5.95;100.00
56944;BME280;42848;42.524;12.052;2023-02-28T08:48:59;96544.00;;;5.87;100.00
56944;BME280;42848;42.524;12.052;2023-02-28T08:51:27;96542.25;;;5.96;100.00
56944;BME280;42848;42.524;12.052;2023-02-28T08:53:54;96540.56;;;6.01;100.00
56944;BME280;42848;42.524;12.052;2023-02-28T08:56:21;96547.56;;;6.02;100.00
56944;BME280;42848;42.524;12.052;2023-02-28T08:58:49;96545.38;;;6.04;100.00
56944;BME280;42848;42.524;12.052;2023-02-28T09:03:41;96553.38;;;6.09;100.00
56944;BME280;42848;42.524;12.052;2023-02-28T09:06:08;96543.72;;;6.21;100.00
56944;BME280;42848;42.524;12.052;2023-02-28T09:08:34;96552.53;;;6.27;100.00
56944;BME280;42848;42.524;12.052;2023-02-28T09:11:01;96559.00;;;6.26;100.00
56944;BME280;42848;42.524;12.052;2023-02-28T09:13:29;96556.25;;;6.31;100.00
56944;BME280;42848;42.524;12.052;2023-02-28T09:15:57;96544.06;;;6.34;100.00
56944;BME280;42848;42.524;12.052;2023-02-28T09:18:23;96558.47;;;6.56;100.00
56944;BME280;42848;42.524;12.052;2023-02-28T09:20:49;96549.38;;;6.66;100.00
56944;BME280;42848;42.524;12.052;2023-02-28T09:23:16;96529.91;;;6.69;100.00
56944;BME280;42848;42.524;12.052;2023-02-28T09:25:49;96532.41;;;6.79;100.00
56944;BME280;42848;42.524;12.052;2023-02-28T09:28:16;96526.91;;;6.84;100.00
56944;BME280;42848;42.524;12.052;2023-02-28T09:30:44;96523.81;;;6.91;100.00
56944;BME280;42848;42.524;12.052;2023-02-28T09:33:11;96532.31;;;6.98;100.00
56944;BME280;42848;42.524;12.052;2023-02-28T09:35:37;96524.31;;;7.07;100.00
56944;BME280;42848;42.524;12.052;2023-02-28T09:38:03;96522.28;;;7.12;100.00
56944;BME280;42848;42.524;12.052;2023-02-28T09:40:30;96533.25;;;7.30;100.00
56944;BME280;42848;42.524;12.052;2023-02-28T09:42:57;96530.69;;;7.25;100.00
56944;BME280;42848;42.524;12.052;2023-02-28T09:45:32;96515.22;;;7.39;100.00
56944;BME280;42848;42.524;12.052;2023-02-28T09:47:59;96517.94;;;7.39;100.00
56944;BME280;42848;42.524;12.052;2023-02-28T09:50:40;96525.22;;;7.52;100.00
56944;BME280;42848;42.524;12.052;2023-02-28T09:53:34;96546.44;;;7.45;100.00
56944;BME280;42848;42.524;12.052;2023-02-28T10:04:54;96524.00;;;7.81;100.00
56944;BME280;42848;42.524;12.052;2023-02-28T10:10:21;96524.56;;;7.91;100.00
56944;BME280;42848;42.524;12.052;2023-02-28T10:12:49;96514.06;;;7.90;100.00
56944;BME280;42848;42.524;12.052;2023-02-28T10:15:19;96520.00;;;8.01;100.00
56944;BME280;42848;42.524;12.052;2023-02-28T10:17:52;96523.50;;;8.01;100.00
56944;BME280;42848;42.524;12.052;2023-02-28T10:20:21;96533.09;;;8.07;100.00
56944;BME280;42848;42.524;12.052;2023-02-28T10:22:57;96522.72;;;8.23;100.00
56944;BME280;42848;42.524;12.052;2023-02-28T10:25:27;96513.59;;;8.19;100.00
56944;BME280;42848;42.524;12.052;2023-02-28T10:27:57;96517.59;;;8.44;100.00
56944;BME280;42848;42.524;12.052;2023-02-28T10:30:27;96520.41;;;8.39;100.00
56944;BME280;42848;42.524;12.052;2023-02-28T10:32:53;96511.22;;;8.48;100.00
56944;BME280;42848;42.524;12.052;2023-02-28T10:35:22;96520.91;;;8.41;100.00
56944;BME280;42848;42.524;12.052;2023-02-28T10:37:56;96511.38;;;8.43;100.00
56944;BME280;42848;42.524;12.052;2023-02-28T10:43:04;96515.28;;;8.68;100.00
56944;BME280;42848;42.524;12.052;2023-02-28T10:45:33;96516.88;;;8.61;100.00
56944;BME280;42848;42.524;12.052;2023-02-28T10:48:31;96528.50;;;8.61;100.00
56944;BME280;42848;42.524;12.052;2023-02-28T10:50:58;96521.13;;;8.53;100.00
56944;BME280;42848;42.524;12.052;2023-02-28T10:58:54;96507.38;;;8.72;100.00
56944;BME280;42848;42.524;12.052;2023-02-28T11:03:58;96494.16;;;8.70;100.00
56944;BME280;42848;42.524;12.052;2023-02-28T11:06:33;96489.06;;;8.77;100.00
56944;BME280;42848;42.524;12.052;2023-02-28T11:09:18;96497.22;;;8.86;100.00
56944;BME280;42848;42.524;12.052;2023-02-28T11:11:47;96502.00;;;8.80;100.00
56944;BME280;42848;42.524;12.052;2023-02-28T11:14:23;96510.75;;;8.86;100.00
56944;BME280;42848;42.524;12.052;2023-02-28T11:16:50;96515.19;;;8.82;100.00
56944;BME280;42848;42.524;12.052;2023-02-28T11:19:20;96508.03;;;8.86;100.00
56944;BME280;42848;42.524;12.052;2023-02-28T11:21:53;96498.03;;;8.95;100.00
56944;BME280;42848;42.524;12.052;2023-02-28T11:24:42;96501.88;;;9.03;100.00
56944;BME280;42848;42.524;12.052;2023-02-28T11:29:58;96497.44;;;9.07;100.00
56944;BME280;42848;42.524;12.052;2023-02-28T11:32:28;96485.66;;;9.20;100.00
56944;BME280;42848;42.524;12.052;2023-02-28T11:37:37;96468.16;;;9.26;100.00
56944;BME280;42848;42.524;12.052;2023-02-28T11:40:14;96473.09;;;9.24;100.00
56944;BME280;42848;42.524;12.052;2023-02-28T11:51:06;96466.88;;;9.32;100.00
56944;BME280;42848;42.524;12.052;2023-02-28T12:02:17;96456.84;;;9.50;100.00
56944;BME280;42848;42.524;12.052;2023-02-28T12:05:11;96444.59;;;9.53;100.00
56944;BME280;42848;42.524;12.052;2023-02-28T12:10:37;96448.72;;;9.41;100.00
56944;BME280;42848;42.524;12.052;2023-02-28T12:13:13;96440.09;;;9.57;100.00
56944;BME280;42848;42.524;12.052;2023-02-28T12:16:09;96430.84;;;9.66;100.00
56944;BME280;42848;42.524;12.052;2023-02-28T12:27:03;96417.38;;;10.05;100.00
56944;BME280;42848;42.524;12.052;2023-02-28T12:29:46;96412.13;;;10.00;100.00
56944;BME280;42848;42.524;12.052;2023-02-28T12:32:19;96407.53;;;9.91;100.00
56944;BME280;42848;42.524;12.052;2023-02-28T12:35:24;96398.59;;;10.00;100.00
56944;BME280;42848;42.524;12.052;2023-02-28T12:37:57;96401.16;;;9.87;100.00
56944;BME280;42848;42.524;12.052;2023-02-28T12:40:47;96390.84;;;10.19;100.00
56944;BME280;42848;42.524;12.052;2023-02-28T12:43:16;96391.97;;;10.18;100.00
56944;BME280;42848;42.524;12.052;2023-02-28T12:45:48;96385.63;;;10.05;100.00
56944;BME280;42848;42.524;12.052;2023-02-28T12:48:20;96398.72;;;10.03;100.00
56944;BME280;42848;42.524;12.052;2023-02-28T12:50:48;96392.81;;;10.10;100.00
56944;BME280;42848;42.524;12.052;2023-02-28T12:57:40;96384.38;;;10.03;100.00
56944;BME280;42848;42.524;12.052;2023-02-28T12:59:51;96392.97;;;10.05;100.00
56944;BME280;42848;42.524;12.052;2023-02-28T13:10:23;96377.59;;;9.79;100.00
56944;BME280;42848;42.524;12.052;2023-02-28T13:12:51;96374.25;;;9.65;100.00
56944;BME280;42848;42.524;12.052;2023-02-28T13:15:25;96378.25;;;9.59;100.00
56944;BME280;42848;42.524;12.052;2023-02-28T13:17:56;96362.66;;;9.56;100.00
56944;BME280;42848;42.524;12.052;2023-02-28T13:22:53;96370.47;;;9.49;100.00
56944;BME280;42848;42.524;12.052;2023-02-28T13:27:54;96369.66;;;9.48;100.00
56944;BME280;42848;42.524;12.052;2023-02-28T13:38:48;96361.84;;;9.64;100.00
56944;BME280;42848;42.524;12.052;2023-02-28T13:44:02;96361.19;;;9.58;100.00
56944;BME280;42848;42.524;12.052;2023-02-28T13:46:29;96362.00;;;9.59;100.00
56944;BME280;42848;42.524;12.052;2023-02-28T13:48:55;96361.19;;;9.67;100.00
56944;BME280;42848;42.524;12.052;2023-02-28T14:05:19;96345.59;;;9.55;100.00
56944;BME280;42848;42.524;12.052;2023-02-28T14:07:53;96338.41;;;9.59;100.00
56944;BME280;42848;42.524;12.052;2023-02-28T14:10:41;96330.00;;;9.52;100.00
56944;BME280;42848;42.524;12.052;2023-02-28T14:13:44;96339.06;;;9.56;100.00
56944;BME280;42848;42.524;12.052;2023-02-28T14:16:13;96335.41;;;9.52;100.00
56944;BME280;42848;42.524;12.052;2023-02-28T14:18:57;96340.66;;;9.49;100.00
56944;BME280;42848;42.524;12.052;2023-02-28T14:21:27;96339.09;;;9.30;100.00
56944;BME280;42848;42.524;12.052;2023-02-28T14:29:38;96335.47;;;9.18;100.00
56944;BME280;42848;42.524;12.052;2023-02-28T14:32:35;96328.78;;;9.06;100.00
56944;BME280;42848;42.524;12.052;2023-02-28T14:37:53;96330.03;;;8.83;100.00
56944;BME280;42848;42.524;12.052;2023-02-28T14:40:32;96333.72;;;8.78;100.00
56944;BME280;42848;42.524;12.052;2023-02-28T14:43:01;96338.94;;;8.75;100.00
56944;BME280;42848;42.524;12.052;2023-02-28T14:45:33;96329.25;;;8.82;100.00
56944;BME280;42848;42.524;12.052;2023-02-28T14:48:02;96335.44;;;8.83;100.00
56944;BME280;42848;42.524;12.052;2023-02-28T14:50:32;96320.00;;;8.83;100.00
56944;BME280;42848;42.524;12.052;2023-02-28T14:52:59;96328.13;;;8.92;100.00
56944;BME280;42848;42.524;12.052;2023-02-28T14:55:30;96326.06;;;8.98;100.00
56944;BME280;42848;42.524;12.052;2023-02-28T14:57:59;96330.50;;;8.94;100.00
56944;BME280;42848;42.524;12.052;2023-02-28T15:00:26;96316.19;;;8.84;100.00
56944;BME280;42848;42.524;12.052;2023-02-28T15:02:54;96332.59;;;8.71;100.00
56944;BME280;42848;42.524;12.052;2023-02-28T15:05:32;96331.00;;;8.61;100.00
56944;BME280;42848;42.524;12.052;2023-02-28T15:08:17;96335.75;;;8.64;100.00
56944;BME280;42848;42.524;12.052;2023-02-28T15:10:52;96338.13;;;8.57;100.00
56944;BME280;42848;42.524;12.052;2023-02-28T15:13:19;96334.94;;;8.55;100.00
56944;BME280;42848;42.524;12.052;2023-02-28T15:21:01;96326.03;;;8.46;100.00
56944;BME280;42848;42.524;12.052;2023-02-28T15:23:29;96322.66;;;8.40;100.00
56944;BME280;42848;42.524;12.052;2023-02-28T15:25:55;96312.63;;;8.41;100.00
56944;BME280;42848;42.524;12.052;2023-02-28T15:28:22;96310.56;;;8.38;100.00
56944;BME280;42848;42.524;12.052;2023-02-28T15:30:59;96308.97;;;8.37;100.00
56944;BME280;42848;42.524;12.052;2023-02-28T15:33:27;96324.38;;;8.27;100.00